New Boston, Illinois
Current Conditions -  °F | °C
As of 10:55 AM on Monday 22 Dec 2014 (Local Time) from KMUT Reporting Station
Haze Haze  
Wind Chill: 34°   Ceiling: 1000
Heat Index: 39°   Visibility: 3mi
Dew Point: 36°   Wind: 7mph
Humidity: 87%   Direction: 100°E
Pressure: 29.69"   Gusts: 13mph
Location:  41.17°N, 91°W
Report Text: KMUT 221655Z AUTO 10006G11KT 3SM BR BKN010 OVC013 04/02 A2969 RMK AO2 P0001
Loading
Personal Weather Stations






























Interactive Weather Map New forecast layout! Learn more

10-Day Weather Forecast

Advertisements
Track Severe Weather on mobile